createdAt,value
2022-12-12T00:01:49.529Z,20.25
2022-12-12T00:06:54.255Z,36.25
2022-12-12T00:11:59.730Z,32.50
2022-12-12T00:17:04.268Z,37.75
2022-12-12T00:22:08.786Z,42.00
2022-12-12T00:27:13.284Z,35.50
2022-12-12T00:32:17.960Z,43.25
2022-12-12T00:37:22.379Z,31.50
2022-12-12T00:42:28.554Z,46.25
2022-12-12T00:47:33.159Z,32.25
2022-12-12T00:52:38.165Z,39.50
2022-12-12T00:57:43.211Z,38.00
2022-12-12T01:02:48.115Z,35.50
2022-12-12T01:07:52.770Z,36.75
2022-12-12T01:12:57.267Z,36.25
2022-12-12T01:18:01.906Z,34.25
2022-12-12T01:23:07.300Z,39.75
2022-12-12T01:28:11.816Z,38.00
2022-12-12T01:33:17.325Z,54.00
2022-12-12T01:38:22.129Z,43.25
2022-12-12T01:43:27.055Z,46.50
2022-12-12T01:48:31.588Z,48.00
2022-12-12T01:53:36.182Z,40.50
2022-12-12T01:58:44.967Z,47.25
2022-12-12T02:03:50.557Z,47.50
2022-12-12T02:08:55.454Z,61.25
2022-12-12T02:14:00.715Z,37.25
2022-12-12T02:19:14.202Z,50.50
2022-12-12T02:24:36.222Z,43.50
2022-12-12T02:29:42.989Z,50.25
2022-12-12T02:34:47.098Z,42.00
2022-12-12T02:39:57.302Z,51.75
2022-12-12T02:45:04.472Z,49.25
2022-12-12T02:50:13.914Z,46.50
2022-12-12T02:55:19.474Z,44.50
2022-12-12T03:00:23.854Z,51.50
2022-12-12T03:05:58.513Z,44.25
2022-12-12T03:11:09.389Z,44.50
2022-12-12T03:16:32.671Z,46.25
2022-12-12T03:21:43.153Z,45.50
2022-12-12T03:26:51.531Z,43.50
2022-12-12T03:32:00.152Z,50.25
2022-12-12T03:37:27.429Z,50.50
2022-12-12T03:42:39.040Z,41.75
2022-12-12T03:47:51.551Z,39.50
2022-12-12T03:52:56.028Z,45.25
2022-12-12T03:58:21.298Z,28.50
2022-12-12T04:03:31.874Z,46.50
2022-12-12T04:08:36.737Z,28.00
2022-12-12T04:13:51.130Z,33.25
2022-12-12T04:19:01.006Z,41.75
2022-12-12T04:24:23.766Z,31.50
2022-12-12T04:29:32.394Z,28.00
2022-12-12T04:34:44.298Z,26.75
2022-12-12T04:39:50.373Z,34.00
2022-12-12T04:44:57.637Z,33.00
2022-12-12T04:50:03.198Z,32.50
2022-12-12T04:55:08.778Z,30.25
2022-12-12T05:00:14.490Z,28.25
2022-12-12T05:05:19.238Z,22.50
2022-12-12T05:10:24.009Z,29.75
2022-12-12T05:15:29.810Z,31.50
2022-12-12T05:20:33.953Z,31.75
2022-12-12T05:25:38.244Z,40.25
2022-12-12T05:30:42.638Z,29.75
2022-12-12T05:35:47.037Z,49.00
2022-12-12T05:40:53.384Z,39.75
2022-12-12T05:45:58.040Z,54.25
2022-12-12T05:51:04.084Z,50.25
2022-12-12T05:56:08.597Z,42.25
2022-12-12T06:01:12.868Z,45.00
2022-12-12T06:06:18.390Z,44.75
2022-12-12T06:11:22.755Z,46.25
2022-12-12T06:16:27.225Z,39.50
2022-12-12T06:21:31.666Z,49.00
2022-12-12T06:26:35.902Z,42.75
2022-12-12T06:31:40.207Z,48.25
2022-12-12T06:36:44.713Z,59.25
2022-12-12T06:41:48.990Z,48.00
2022-12-12T06:46:53.334Z,51.75
2022-12-12T06:51:57.612Z,54.50
2022-12-12T06:57:01.896Z,49.50
2022-12-12T07:02:06.238Z,49.00
2022-12-12T07:07:10.441Z,52.50
2022-12-12T07:12:15.094Z,48.75
2022-12-12T07:17:19.404Z,50.50
2022-12-12T07:22:23.739Z,46.50
2022-12-12T07:27:28.070Z,45.50
2022-12-12T07:32:32.215Z,47.25
2022-12-12T07:37:36.559Z,48.00
2022-12-12T07:42:40.781Z,44.25
2022-12-12T07:47:45.199Z,41.75
2022-12-12T07:52:49.497Z,49.75
2022-12-12T07:57:54.596Z,49.00
2022-12-12T08:02:58.892Z,48.00
2022-12-12T08:08:03.195Z,42.00
2022-12-12T08:13:08.242Z,52.25
2022-12-12T08:18:12.376Z,50.00
2022-12-12T08:23:16.674Z,48.75
2022-12-12T08:28:21.422Z,45.25
2022-12-12T08:33:25.662Z,50.00
2022-12-12T08:38:31.671Z,47.50
2022-12-12T08:43:35.994Z,50.25
2022-12-12T08:48:40.397Z,46.25
2022-12-12T08:53:48.395Z,49.00
2022-12-12T08:58:52.498Z,56.00
2022-12-12T09:03:57.449Z,47.50
2022-12-12T09:09:01.551Z,42.00
2022-12-12T09:14:05.687Z,40.75
2022-12-12T09:19:09.726Z,46.00
2022-12-12T09:24:13.775Z,43.25
2022-12-12T09:29:17.826Z,43.50
2022-12-12T09:34:21.851Z,40.00
2022-12-12T09:39:26.094Z,44.00
2022-12-12T09:44:30.292Z,46.75
2022-12-12T09:49:44.125Z,33.25
2022-12-12T09:54:48.495Z,49.00
2022-12-12T10:00:24.657Z,40.00
2022-12-12T10:05:40.869Z,40.00
2022-12-12T10:10:46.615Z,33.00
2022-12-12T10:16:00.185Z,30.00
2022-12-12T10:21:08.454Z,40.25
2022-12-12T10:26:17.276Z,41.50
2022-12-12T10:31:31.729Z,28.50
2022-12-12T10:36:56.453Z,34.00
2022-12-12T10:42:03.794Z,35.75
2022-12-12T10:47:10.180Z,32.50
2022-12-12T10:52:23.798Z,42.25
2022-12-12T10:57:29.407Z,40.25
2022-12-12T11:02:37.808Z,28.25
2022-12-12T11:07:50.228Z,34.00
2022-12-12T11:12:58.667Z,30.25
2022-12-12T11:18:06.354Z,36.25
2022-12-12T11:23:18.421Z,32.00
2022-12-12T11:28:24.826Z,46.00
2022-12-12T11:33:49.993Z,55.25
2022-12-12T11:38:56.484Z,59.75
2022-12-12T11:44:01.622Z,67.50
2022-12-12T11:49:07.104Z,66.50
2022-12-12T11:54:16.302Z,68.75
2022-12-12T11:59:35.787Z,66.25
2022-12-12T12:04:58.913Z,71.25
2022-12-12T12:10:09.073Z,67.50
2022-12-12T12:15:40.227Z,68.50
2022-12-12T12:20:59.810Z,64.75
2022-12-12T12:26:22.999Z,67.25
2022-12-12T12:31:49.078Z,59.25
2022-12-12T12:37:12.025Z,62.00
2022-12-12T12:42:55.254Z,64.25
2022-12-12T12:48:08.798Z,56.25
2022-12-12T12:53:24.026Z,51.00
2022-12-12T12:58:48.553Z,57.75
2022-12-12T13:03:58.158Z,64.50
2022-12-12T13:09:08.678Z,56.25
2022-12-12T13:14:16.268Z,59.00
2022-12-12T13:19:27.342Z,59.25
2022-12-12T13:24:32.083Z,57.00
2022-12-12T13:29:45.835Z,59.50
2022-12-12T13:34:55.392Z,52.50
2022-12-12T13:40:07.140Z,49.25
2022-12-12T13:45:31.833Z,54.25
2022-12-12T13:50:37.752Z,50.25
2022-12-12T13:55:42.392Z,47.50
2022-12-12T14:00:47.667Z,49.50
2022-12-12T14:05:53.972Z,56.00
2022-12-12T14:10:58.913Z,52.50
2022-12-12T14:16:08.606Z,46.50
2022-12-12T14:21:14.362Z,53.00
2022-12-12T14:26:31.260Z,52.75
2022-12-12T14:31:41.120Z,49.75
2022-12-12T14:36:59.559Z,54.75
2022-12-12T14:42:17.916Z,50.75
2022-12-12T14:47:24.883Z,43.50
2022-12-12T14:52:29.707Z,46.50
2022-12-12T14:57:34.224Z,47.25
2022-12-12T15:02:42.335Z,33.50
2022-12-12T15:07:46.942Z,50.75
2022-12-12T15:12:51.380Z,45.50
2022-12-12T15:17:58.211Z,33.50
2022-12-12T15:23:02.581Z,32.25
2022-12-12T15:28:08.341Z,31.25
2022-12-12T15:33:20.730Z,29.00
2022-12-12T15:38:25.811Z,30.75
2022-12-12T15:43:31.202Z,29.50
2022-12-12T15:48:35.993Z,27.50
2022-12-12T15:53:42.059Z,26.50
2022-12-12T15:58:51.445Z,23.75
2022-12-12T16:03:57.511Z,24.00
2022-12-12T16:09:03.922Z,27.25
2022-12-12T16:14:31.385Z,23.75
2022-12-12T16:19:44.912Z,25.00
2022-12-12T16:24:52.209Z,22.25
2022-12-12T16:29:56.915Z,25.50
2022-12-12T16:35:01.586Z,23.25
2022-12-12T16:40:06.452Z,22.00
2022-12-12T16:45:12.291Z,29.75
2022-12-12T16:50:17.228Z,23.25
2022-12-12T16:55:24.659Z,31.00
2022-12-12T17:00:30.562Z,22.50
2022-12-12T17:05:36.466Z,19.25
2022-12-12T17:10:42.769Z,19.75
2022-12-12T17:15:47.808Z,27.00
2022-12-12T17:20:52.294Z,21.00
2022-12-12T17:26:03.121Z,17.25
2022-12-12T17:31:09.965Z,20.00
2022-12-12T17:36:14.814Z,19.25
2022-12-12T17:41:19.544Z,20.25
2022-12-12T17:46:24.511Z,19.00
2022-12-12T17:51:28.577Z,19.00
2022-12-12T17:56:33.503Z,19.00
2022-12-12T18:01:38.096Z,20.75
2022-12-12T18:06:42.711Z,17.00
2022-12-12T18:11:47.441Z,19.00
2022-12-12T18:16:52.552Z,19.25
2022-12-12T18:22:01.625Z,23.75
2022-12-12T18:27:06.682Z,23.00
2022-12-12T18:32:13.455Z,22.50
2022-12-12T18:37:18.164Z,17.25
2022-12-12T18:42:22.920Z,16.75
2022-12-12T18:47:27.297Z,19.00
2022-12-12T18:52:33.783Z,14.25
2022-12-12T18:57:38.428Z,21.75
2022-12-12T19:02:43.075Z,20.00
2022-12-12T19:07:48.345Z,20.00
2022-12-12T19:12:52.421Z,17.25
2022-12-12T19:17:57.644Z,16.00
2022-12-12T19:23:02.133Z,14.00
2022-12-12T19:28:06.748Z,15.25
2022-12-12T19:33:11.296Z,19.75
2022-12-12T19:38:19.730Z,15.75
2022-12-12T19:43:30.150Z,16.00
2022-12-12T19:48:34.877Z,14.00
2022-12-12T19:53:43.247Z,18.00
2022-12-12T19:58:48.082Z,16.50
2022-12-12T20:04:05.136Z,14.75
2022-12-12T20:09:13.619Z,19.00
2022-12-12T20:14:22.462Z,18.00
2022-12-12T20:19:28.444Z,15.00
2022-12-12T20:24:34.172Z,14.25
2022-12-12T20:29:38.807Z,14.50
2022-12-12T20:34:43.415Z,15.00
2022-12-12T20:39:48.134Z,16.00
2022-12-12T20:44:52.194Z,18.00
2022-12-12T20:49:56.826Z,16.00
2022-12-12T20:55:01.474Z,17.00
2022-12-12T21:00:06.897Z,17.50
2022-12-12T21:05:11.737Z,16.00
2022-12-12T21:10:16.710Z,15.25
2022-12-12T21:15:21.042Z,13.50
2022-12-12T21:20:25.763Z,16.50
2022-12-12T21:25:30.382Z,13.75
2022-12-12T21:30:35.027Z,14.75
2022-12-12T21:35:39.618Z,19.25
2022-12-12T21:40:44.082Z,12.00
2022-12-12T21:45:48.627Z,15.25
2022-12-12T21:50:52.855Z,13.75
2022-12-12T21:56:04.201Z,16.50
2022-12-12T22:01:13.782Z,14.50
2022-12-12T22:06:22.676Z,14.75
2022-12-12T22:11:47.559Z,15.75
2022-12-12T22:16:54.142Z,15.75
2022-12-12T22:21:58.722Z,12.00
2022-12-12T22:27:04.422Z,16.00
2022-12-12T22:32:08.868Z,13.75
2022-12-12T22:37:13.459Z,14.50
2022-12-12T22:42:18.305Z,13.00
2022-12-12T22:47:25.045Z,14.50
2022-12-12T22:52:30.209Z,13.50
2022-12-12T22:57:35.659Z,13.25
2022-12-12T23:02:40.589Z,12.75
2022-12-12T23:07:46.217Z,12.25
2022-12-12T23:12:50.826Z,18.00
2022-12-12T23:17:55.402Z,14.25
2022-12-12T23:23:00.096Z,13.75
2022-12-12T23:28:06.264Z,12.25
2022-12-12T23:33:14.037Z,19.00
2022-12-12T23:38:18.582Z,15.00
2022-12-12T23:43:23.200Z,16.25
2022-12-12T23:48:27.806Z,16.00
2022-12-12T23:53:35.613Z,13.25
2022-12-12T23:58:40.234Z,13.00
